Time;durP1;ratioP1;P1;durP2;ratioP2;P2;SDS_P1;SDS_P2;PMS_P1;PMS_P2;Temp;Humidity;BMP_temperature;BMP_pressure;BME280_temperature;BME280_humidity;BME280_pressure;Samples;Min_cycle;Max_cycle;Signal;HPM_P1;HPM_P2
2021/05/25 00:02:16;;;;;;;6.40;3.22;;;;;;;36.90;19.41;94904.09;5116780;28;20412;-61
2021/05/25 00:04:44;;;;;;;6.00;2.85;;;;;;;37.59;18.25;94893.00;5098665;28;20365;-61
2021/05/25 00:07:11;;;;;;;8.00;3.03;;;;;;;37.12;18.84;94899.41;5116484;28;20369;-61
2021/05/25 00:09:38;;;;;;;6.50;3.00;;;;;;;37.03;18.62;94902.06;5115861;28;20050;-68
2021/05/25 00:12:21;;;;;;;5.07;2.75;;;;;;;36.98;19.10;94889.03;5116336;28;20054;-56
2021/05/25 00:14:48;;;;;;;6.95;3.10;;;;;;;37.59;17.97;94882.84;5098437;28;20046;-57
2021/05/25 00:17:15;;;;;;;7.40;2.90;;;;;;;36.97;19.14;94887.50;5134757;27;20043;-65
2021/05/25 00:19:42;;;;;;;4.28;2.42;;;;;;;37.13;19.02;94898.19;5130663;27;20047;-56
2021/05/25 00:22:12;;;;;;;4.72;2.90;;;;;;;37.17;19.18;94900.78;5116325;28;20039;-68
2021/05/25 00:24:39;;;;;;;6.20;3.10;;;;;;;37.68;18.91;94884.84;5115794;28;20059;-65
2021/05/25 00:27:08;;;;;;;5.03;3.03;;;;;;;37.90;19.00;94888.28;5115766;28;20047;-63
2021/05/25 00:29:35;;;;;;;5.00;2.97;;;;;;;37.84;18.70;94881.91;5115440;28;20053;-55
2021/05/25 00:32:02;;;;;;;6.43;3.10;;;;;;;37.94;18.63;94869.78;5115991;28;20052;-56
2021/05/25 00:34:30;;;;;;;7.90;3.17;;;;;;;37.66;18.54;94874.38;5115908;28;20442;-61
2021/05/25 00:36:57;;;;;;;5.13;3.20;;;;;;;37.71;18.90;94873.06;5116073;28;20048;-68
2021/05/25 00:39:24;;;;;;;7.53;3.10;;;;;;;37.15;19.10;94854.91;5115282;28;20054;-64
2021/05/25 00:41:51;;;;;;;4.47;3.20;;;;;;;37.81;18.75;94855.53;5115783;28;20051;-55
2021/05/25 00:44:18;;;;;;;5.45;2.90;;;;;;;37.12;19.55;94855.03;5115854;28;20058;-67
2021/05/25 00:46:46;;;;;;;5.18;3.15;;;;;;;37.32;18.72;94853.50;5097390;28;20078;-68
2021/05/25 00:49:13;;;;;;;5.13;3.10;;;;;;;36.86;19.34;94855.19;5115440;28;20051;-62
2021/05/25 00:51:41;;;;;;;7.80;3.50;;;;;;;37.21;18.92;94858.56;5115502;28;20048;-66
2021/05/25 00:54:08;;;;;;;5.78;3.30;;;;;;;36.92;18.93;94861.59;5115522;28;20043;-69
2021/05/25 00:56:36;;;;;;;4.72;3.05;;;;;;;37.61;18.22;94852.41;5108977;28;20061;-63
2021/05/25 00:59:03;;;;;;;4.72;3.40;;;;;;;36.86;19.40;94854.44;5095072;28;20044;-69
2021/05/25 01:01:30;;;;;;;5.57;4.22;;;;;;;37.41;18.91;94858.22;5113814;28;20062;-66
2021/05/25 01:03:57;;;;;;;6.97;3.85;;;;;;;37.46;18.58;94874.00;5114808;28;20044;-67
2021/05/25 01:06:24;;;;;;;6.60;4.22;;;;;;;37.47;19.14;94872.03;5114806;28;20055;-64
2021/05/25 01:08:52;;;;;;;6.35;4.85;;;;;;;37.41;18.74;94871.09;5115411;28;20343;-56
2021/05/25 01:11:21;;;;;;;6.60;4.72;;;;;;;36.90;19.74;94871.41;5114978;28;20453;-55
2021/05/25 01:13:51;;;;;;;8.25;4.68;;;;;;;37.21;19.41;94876.88;5115166;28;20438;-60
2021/05/25 01:16:21;;;;;;;6.13;5.53;;;;;;;37.56;19.35;94867.38;5120403;27;20054;-59
2021/05/25 01:18:49;;;;;;;6.63;5.82;;;;;;;37.10;19.31;94863.66;5118129;27;20460;-65
2021/05/25 01:21:16;;;;;;;7.93;5.80;;;;;;;37.92;18.67;94863.28;5118934;27;20078;-64
2021/05/25 01:23:44;;;;;;;6.53;5.90;;;;;;;37.07;19.68;94870.00;5094719;28;20048;-65
2021/05/25 01:26:13;;;;;;;7.00;6.30;;;;;;;37.64;18.86;94867.84;5103439;28;20058;-61
2021/05/25 01:28:41;;;;;;;9.93;6.13;;;;;;;37.37;18.92;94859.56;5115117;28;20040;-64
2021/05/25 01:31:08;;;;;;;9.43;5.97;;;;;;;37.26;19.59;94860.75;5103251;28;20051;-63
2021/05/25 01:33:44;;;;;;;6.65;5.65;;;;;;;36.25;20.56;94855.75;5094632;28;20036;-65
2021/05/25 01:36:13;;;;;;;6.85;5.47;;;;;;;36.55;20.23;94852.38;5102481;28;20473;-58
2021/05/25 01:38:41;;;;;;;5.55;4.93;;;;;;;36.90;19.26;94841.44;5114956;28;20043;-58
2021/05/25 01:41:09;;;;;;;7.07;4.90;;;;;;;36.75;19.40;94855.56;5096866;28;20055;-69
2021/05/25 01:43:38;;;;;;;8.85;4.85;;;;;;;36.83;19.79;94850.63;5115037;28;20430;-56
2021/05/25 01:46:05;;;;;;;8.55;4.55;;;;;;;37.02;19.39;94859.69;5099550;28;20058;-57
2021/05/25 01:48:33;;;;;;;7.72;4.20;;;;;;;36.85;19.33;94853.69;5135372;28;20054;-55
2021/05/25 01:51:00;;;;;;;6.38;4.55;;;;;;;36.59;19.97;94858.47;5123805;28;20074;-65
2021/05/25 01:53:29;;;;;;;8.40;4.70;;;;;;;36.60;19.97;94849.09;5114875;28;20481;-55
2021/05/25 01:55:58;;;;;;;7.90;4.60;;;;;;;36.75;19.28;94846.63;5096567;28;20047;-64
2021/05/25 01:58:33;;;;;;;7.53;4.90;;;;;;;36.63;19.80;94842.75;5096813;28;20043;-54
2021/05/25 02:01:06;;;;;;;6.28;4.72;;;;;;;37.51;18.76;94840.72;5114599;28;20051;-68
2021/05/25 02:03:33;;;;;;;6.88;4.65;;;;;;;37.00;19.55;94832.13;5114868;28;20047;-54
2021/05/25 02:06:01;;;;;;;5.13;4.25;;;;;;;36.57;19.89;94828.19;5114338;28;20052;-64
2021/05/25 02:08:28;;;;;;;5.90;4.30;;;;;;;36.62;19.73;94830.34;5114616;28;20078;-59
2021/05/25 02:10:59;;;;;;;6.82;4.93;;;;;;;36.52;20.05;94836.94;5114667;28;20040;-54
2021/05/25 02:13:30;;;;;;;8.45;5.30;;;;;;;36.41;19.79;94825.66;5114853;28;20058;-66
2021/05/25 02:16:09;;;;;;;8.68;5.55;;;;;;;36.45;19.95;94831.75;5113933;28;20052;-61
2021/05/25 02:18:42;;;;;;;8.15;5.40;;;;;;;36.07;20.20;94829.88;5114232;28;20047;-68
2021/05/25 02:21:11;;;;;;;7.32;5.32;;;;;;;35.94;20.44;94831.91;5107331;28;20048;-62
2021/05/25 02:23:39;;;;;;;8.05;5.57;;;;;;;36.69;19.96;94832.03;5094366;28;20043;-59
2021/05/25 02:26:06;;;;;;;8.43;5.50;;;;;;;37.27;19.42;94829.56;5100100;28;20043;-63
2021/05/25 02:28:34;;;;;;;8.48;6.03;;;;;;;36.68;19.90;94822.34;5114190;28;20054;-68
2021/05/25 02:31:02;;;;;;;9.10;6.45;;;;;;;36.29;20.06;94821.00;5114678;28;20358;-69
2021/05/25 02:33:30;;;;;;;7.32;6.25;;;;;;;36.51;20.39;94829.97;5114527;28;20074;-61
2021/05/25 02:35:58;;;;;;;8.32;6.40;;;;;;;35.37;21.38;94822.78;5114018;28;20054;-63
2021/05/25 02:38:27;;;;;;;7.53;6.45;;;;;;;36.55;19.93;94822.44;5096534;28;20377;-61
2021/05/25 02:40:55;;;;;;;7.05;6.03;;;;;;;35.71;20.68;94824.06;5114685;28;20052;-66
2021/05/25 02:43:24;;;;;;;7.90;6.43;;;;;;;36.20;20.39;94827.13;5114494;28;20074;-69
2021/05/25 02:45:53;;;;;;;6.80;6.10;;;;;;;36.18;20.20;94820.63;5118363;28;20056;-55
2021/05/25 02:48:21;;;;;;;8.93;6.70;;;;;;;37.01;19.55;94833.66;5120443;28;20362;-63
2021/05/25 02:50:49;;;;;;;8.18;6.90;;;;;;;36.53;19.98;94833.00;5118152;28;20047;-55
2021/05/25 02:53:17;;;;;;;8.73;7.03;;;;;;;36.39;19.99;94833.50;5117975;28;20051;-54
2021/05/25 02:55:44;;;;;;;8.43;7.53;;;;;;;36.44;19.54;94839.16;5117613;28;20057;-54
2021/05/25 02:58:12;;;;;;;8.75;7.68;;;;;;;36.68;19.85;94834.00;5116804;28;20044;-59
2021/05/25 03:00:43;;;;;;;9.05;7.47;;;;;;;36.93;19.23;94826.94;5099751;28;20358;-69
2021/05/25 03:03:10;;;;;;;9.55;8.60;;;;;;;36.73;19.30;94819.84;5117756;28;20040;-63
2021/05/25 03:05:38;;;;;;;10.23;8.73;;;;;;;36.33;19.94;94829.81;5117615;28;20063;-69
2021/05/25 03:08:07;;;;;;;9.52;8.57;;;;;;;36.37;19.79;94820.34;5117382;28;20070;-57
2021/05/25 03:10:37;;;;;;;10.05;9.13;;;;;;;36.42;20.04;94822.47;5117215;28;20446;-54
2021/05/25 03:13:04;;;;;;;9.95;8.95;;;;;;;36.96;19.49;94831.50;5117453;28;20051;-67
2021/05/25 03:15:34;;;;;;;9.90;8.95;;;;;;;36.09;19.55;94789.41;5117176;28;20059;-66
2021/05/25 03:18:02;;;;;;;10.68;9.57;;;;;;;36.01;20.25;94830.88;5135992;27;20043;-62
2021/05/25 03:20:30;;;;;;;12.25;9.30;;;;;;;36.81;19.63;94833.97;5104520;28;20397;-66
2021/05/25 03:22:57;;;;;;;11.32;9.30;;;;;;;36.10;20.13;94834.44;5117315;28;20074;-62
2021/05/25 03:25:25;;;;;;;10.88;9.27;;;;;;;36.38;19.95;94842.88;5117037;28;20058;-60
2021/05/25 03:27:52;;;;;;;11.35;9.50;;;;;;;36.53;19.41;94841.19;5116750;28;20047;-68
2021/05/25 03:30:24;;;;;;;10.80;9.68;;;;;;;36.39;19.82;94839.69;5116757;28;20050;-54
2021/05/25 03:32:52;;;;;;;11.45;10.13;;;;;;;35.93;20.50;94840.50;5099064;28;20438;-55
2021/05/25 03:35:23;;;;;;;12.60;10.63;;;;;;;37.12;19.55;94855.78;5116885;28;20043;-58
2021/05/25 03:37:51;;;;;;;11.55;10.35;;;;;;;36.52;20.07;94853.28;5116561;28;20051;-65
2021/05/25 03:40:19;;;;;;;10.90;9.90;;;;;;;36.06;20.53;94861.00;5116880;28;20051;-68
2021/05/25 03:42:51;;;;;;;11.80;10.52;;;;;;;36.58;20.05;94867.06;5114501;28;20061;-65
2021/05/25 03:45:43;;;;;;;13.38;10.60;;;;;;;36.21;20.00;94871.44;5115205;27;20370;-63
2021/05/25 03:48:10;;;;;;;12.43;10.68;;;;;;;36.43;19.88;94867.59;5116131;28;20126;-59
2021/05/25 03:50:38;;;;;;;17.13;10.68;;;;;;;36.28;19.79;94865.75;5115956;28;20043;-67
2021/05/25 03:53:05;;;;;;;12.38;10.05;;;;;;;35.91;20.43;94865.38;5137152;27;20050;-63
2021/05/25 04:00:50;;;;;;;12.32;11.13;;;;;;;36.22;20.04;94872.97;5101031;28;20055;-66
2021/05/25 04:03:17;;;;;;;10.98;9.38;;;;;;;36.71;19.16;94852.22;5116840;28;20485;-62
2021/05/25 04:05:46;;;;;;;10.55;9.40;;;;;;;36.58;19.60;94854.22;5116708;28;20066;-65
2021/05/25 04:08:14;;;;;;;11.18;10.05;;;;;;;36.28;20.11;94843.97;5116423;28;20050;-55
2021/05/25 04:10:41;;;;;;;11.80;10.60;;;;;;;36.56;19.63;94859.34;5116270;28;20117;-55
2021/05/25 04:13:08;;;;;;;12.10;9.70;;;;;;;36.04;20.31;94863.41;5116357;28;20366;-55
2021/05/25 04:15:37;;;;;;;14.45;10.43;;;;;;;36.33;19.96;94868.69;5120809;27;20047;-57
2021/05/25 04:18:05;;;;;;;11.20;9.60;;;;;;;36.22;19.97;94862.06;5116737;27;20093;-65
2021/05/25 04:20:32;;;;;;;10.48;9.38;;;;;;;36.15;19.86;94869.25;5115937;28;20125;-58
2021/05/25 04:22:59;;;;;;;11.88;9.10;;;;;;;36.07;20.00;94878.09;5098541;28;20043;-56
2021/05/25 04:25:27;;;;;;;10.15;8.63;;;;;;;36.56;19.76;94880.38;5098272;28;20043;-58
2021/05/25 04:27:54;;;;;;;11.77;9.50;;;;;;;36.31;20.33;94875.78;5115952;28;20051;-58
2021/05/25 04:30:22;;;;;;;13.88;9.68;;;;;;;36.44;20.37;94885.44;5115765;28;20378;-58
2021/05/25 04:32:50;;;;;;;10.55;9.20;;;;;;;36.96;20.33;94899.63;5115979;28;20500;-53
2021/05/25 04:35:18;;;;;;;10.25;8.48;;;;;;;36.72;20.01;94889.13;5100750;28;20052;-52
2021/05/25 04:37:45;;;;;;;10.13;8.40;;;;;;;37.41;19.10;94885.50;5110874;28;20055;-54
2021/05/25 04:40:12;;;;;;;9.90;7.45;;;;;;;36.35;20.33;94884.59;5115604;28;20047;-51
2021/05/25 04:42:40;;;;;;;9.77;7.38;;;;;;;36.93;19.77;94897.75;5115768;28;20051;-53
2021/05/25 04:45:08;;;;;;;12.77;8.10;;;;;;;37.21;20.13;94888.53;5116170;27;20043;-54
2021/05/25 04:47:36;;;;;;;10.65;7.32;;;;;;;37.52;20.27;94883.13;5114205;27;20043;-53
2021/05/25 04:50:05;;;;;;;10.10;7.20;;;;;;;37.28;19.95;94879.38;5115251;28;20051;-54
2021/05/25 04:52:33;;;;;;;18.58;8.27;;;;;;;37.62;19.00;94892.84;5115655;28;20078;-55
2021/05/25 04:55:03;;;;;;;9.73;7.00;;;;;;;35.87;20.76;94886.50;5111724;28;20498;-67
2021/05/25 04:57:31;;;;;;;8.88;7.35;;;;;;;35.24;21.50;94889.94;5106190;28;20047;-57
2021/05/25 04:59:58;;;;;;;11.43;7.03;;;;;;;35.27;21.54;94894.50;5102195;28;20384;-65
2021/05/25 05:02:26;;;;;;;7.85;6.57;;;;;;;36.42;20.37;94909.59;5109942;28;20374;-55
2021/05/25 05:04:53;;;;;;;9.75;6.40;;;;;;;36.38;20.48;94906.22;5109555;28;20051;-58
2021/05/25 05:07:20;;;;;;;7.90;5.90;;;;;;;36.24;20.12;94897.78;5095128;28;20043;-64
2021/05/25 05:09:47;;;;;;;8.10;5.97;;;;;;;36.51;19.78;94895.31;5100058;28;20043;-62
2021/05/25 05:12:15;;;;;;;7.95;6.00;;;;;;;36.89;19.68;94908.03;5097004;28;20043;-55
2021/05/25 05:14:42;;;;;;;7.72;6.13;;;;;;;37.31;18.99;94906.50;5096915;28;20046;-61
2021/05/25 05:17:09;;;;;;;8.32;6.05;;;;;;;36.15;20.06;94915.50;5132852;27;20047;-59
2021/05/25 05:19:36;;;;;;;9.52;6.70;;;;;;;36.70;19.40;94913.31;5131703;27;20047;-60
2021/05/25 05:22:04;;;;;;;12.25;6.88;;;;;;;37.03;18.92;94923.88;5114257;28;20096;-57
2021/05/25 05:24:31;;;;;;;8.57;6.15;;;;;;;36.98;19.77;94921.72;5114999;28;20044;-64
2021/05/25 05:26:58;;;;;;;8.88;5.53;;;;;;;37.13;19.04;94916.50;5115488;28;20047;-63
2021/05/25 05:29:33;;;;;;;9.65;6.15;;;;;;;37.57;19.09;94914.50;5114735;28;20051;-58
2021/05/25 05:32:00;;;;;;;11.43;5.90;;;;;;;36.95;19.71;94923.34;5115104;28;20047;-56
2021/05/25 05:34:27;;;;;;;10.63;7.35;;;;;;;37.21;18.75;94915.78;5114676;28;20048;-58
2021/05/25 05:36:54;;;;;;;8.73;6.43;;;;;;;37.08;19.37;94920.56;5109233;28;20048;-64
2021/05/25 05:39:22;;;;;;;9.95;6.97;;;;;;;38.04;18.49;94916.97;5095271;28;20055;-59
2021/05/25 05:41:49;;;;;;;8.30;6.57;;;;;;;37.38;19.28;94919.09;5114928;28;20047;-62
2021/05/25 05:44:16;;;;;;;9.40;5.88;;;;;;;37.77;18.77;94920.38;5115109;28;20036;-63
2021/05/25 05:46:43;;;;;;;7.45;5.95;;;;;;;37.29;19.39;94916.34;5104079;28;20043;-59
2021/05/25 05:49:11;;;;;;;9.38;6.20;;;;;;;37.00;19.53;94908.41;5135359;28;20050;-61
2021/05/25 05:51:38;;;;;;;6.80;4.90;;;;;;;36.63;20.10;94908.09;5115410;28;20040;-60
2021/05/25 05:54:05;;;;;;;7.60;5.45;;;;;;;37.32;18.78;94902.56;5114769;28;20044;-54
2021/05/25 05:56:32;;;;;;;8.23;5.18;;;;;;;37.49;18.70;94905.09;5114782;28;20047;-62
2021/05/25 05:58:59;;;;;;;9.25;5.40;;;;;;;37.60;18.64;94916.34;5096834;28;20051;-70
2021/05/25 06:01:27;;;;;;;9.07;5.22;;;;;;;37.37;18.60;94903.19;5114553;28;20044;-68
2021/05/25 06:03:54;;;;;;;7.47;4.90;;;;;;;37.68;18.49;94912.13;5114885;28;20050;-58
2021/05/25 06:06:21;;;;;;;8.00;4.97;;;;;;;37.38;19.51;94900.03;5114474;28;20324;-62
2021/05/25 06:08:48;;;;;;;10.52;4.97;;;;;;;38.69;17.63;94904.97;5106598;28;20464;-64
2021/05/25 06:11:16;;;;;;;9.07;4.78;;;;;;;37.67;18.97;94902.41;5110167;28;20046;-57
2021/05/25 06:13:44;;;;;;;8.65;4.93;;;;;;;38.19;18.28;94914.44;5114630;28;20052;-58
2021/05/25 06:16:11;;;;;;;12.35;5.35;;;;;;;38.39;18.10;94909.31;5114085;28;20050;-64
2021/05/25 06:18:38;;;;;;;10.73;5.90;;;;;;;38.01;18.58;94912.41;5114449;28;20062;-60
2021/05/25 06:21:05;;;;;;;16.15;5.70;;;;;;;38.48;17.48;94912.03;5114318;28;20048;-67
2021/05/25 06:23:33;;;;;;;7.25;5.93;;;;;;;38.09;18.43;94910.16;5115104;28;20040;-58
2021/05/25 06:26:02;;;;;;;6.43;5.80;;;;;;;38.59;18.04;94910.84;5118802;28;20058;-63
2021/05/25 06:28:32;;;;;;;7.93;6.28;;;;;;;39.01;17.51;94906.28;5118068;28;20051;-64
2021/05/25 06:30:59;;;;;;;10.52;6.38;;;;;;;38.56;17.70;94913.28;5100200;28;20043;-61
2021/05/25 06:33:27;;;;;;;9.50;6.72;;;;;;;37.88;18.70;94909.03;5118263;28;20040;-67
2021/05/25 06:35:55;;;;;;;9.93;6.50;;;;;;;37.54;18.88;94916.16;5118162;28;20381;-54
2021/05/25 06:38:22;;;;;;;10.98;6.88;;;;;;;37.91;18.58;94897.22;5117904;28;20050;-61
2021/05/25 06:40:49;;;;;;;11.60;8.27;;;;;;;38.27;18.48;94890.38;5117908;28;20048;-61
2021/05/25 06:43:16;;;;;;;11.68;8.38;;;;;;;38.30;18.32;94895.66;5118262;28;20046;-65
2021/05/25 06:45:44;;;;;;;9.05;7.00;;;;;;;38.41;17.81;94890.50;5118057;27;20477;-63
2021/05/25 06:48:11;;;;;;;8.65;6.22;;;;;;;38.64;18.04;94874.75;5121421;27;20047;-65
2021/05/25 06:50:39;;;;;;;9.10;6.55;;;;;;;39.29;17.49;94885.13;5117805;28;20377;-63
2021/05/25 06:53:06;;;;;;;8.45;6.63;;;;;;;38.06;18.26;94883.78;5117994;28;20335;-64
2021/05/25 06:55:35;;;;;;;8.68;5.68;;;;;;;38.84;18.25;94884.00;5117928;28;20450;-68
2021/05/25 06:58:02;;;;;;;8.90;5.93;;;;;;;38.69;18.01;94874.91;5099460;28;20051;-63
2021/05/25 07:00:29;;;;;;;7.63;5.28;;;;;;;38.92;17.79;94884.44;5117478;28;20370;-60
2021/05/25 07:02:56;;;;;;;6.30;5.65;;;;;;;38.86;17.89;94878.09;5117826;28;20040;-59
2021/05/25 07:05:23;;;;;;;8.57;5.70;;;;;;;39.00;17.70;94880.19;5102305;28;20048;-59
2021/05/25 07:07:50;;;;;;;8.40;5.22;;;;;;;39.21;17.59;94873.03;5108962;28;20047;-62
2021/05/25 07:10:18;;;;;;;6.60;4.78;;;;;;;39.28;17.77;94866.47;5117440;28;20059;-67
2021/05/25 07:12:45;;;;;;;9.95;4.93;;;;;;;39.27;17.55;94860.25;5117743;28;20047;-64
2021/05/25 07:15:13;;;;;;;6.80;5.38;;;;;;;38.61;18.19;94864.72;5118752;27;20051;-58
2021/05/25 07:17:53;;;;;;;9.07;5.85;;;;;;;39.05;17.76;94854.22;5127025;27;20050;-57
2021/05/25 07:20:20;;;;;;;7.68;5.55;;;;;;;38.71;17.82;94855.34;5117311;28;20059;-61
2021/05/25 07:22:51;;;;;;;12.80;7.22;;;;;;;38.83;18.10;94848.94;5117408;28;20368;-61
2021/05/25 07:25:19;;;;;;;7.05;5.93;;;;;;;38.89;17.89;94847.13;5117545;28;20054;-58
2021/05/25 07:27:46;;;;;;;9.45;8.10;;;;;;;39.13;17.48;94858.94;5098819;28;20048;-67
2021/05/25 07:30:14;;;;;;;10.02;7.55;;;;;;;39.48;17.32;94858.50;5106274;28;20047;-67
2021/05/25 07:32:42;;;;;;;7.68;6.50;;;;;;;39.33;17.47;94852.19;5117385;28;20058;-66
2021/05/25 07:35:11;;;;;;;9.45;6.55;;;;;;;39.74;17.07;94856.13;5116032;28;20055;-68
2021/05/25 07:37:39;;;;;;;9.85;6.95;;;;;;;38.68;17.98;94856.25;5116840;28;20047;-63
2021/05/25 07:40:07;;;;;;;8.13;6.25;;;;;;;39.40;17.38;94862.78;5116883;28;20046;-65
2021/05/25 07:42:35;;;;;;;8.88;6.07;;;;;;;39.46;17.61;94856.22;5117130;28;20520;-60
2021/05/25 07:45:03;;;;;;;7.13;5.80;;;;;;;39.49;17.22;94860.00;5117061;28;20039;-69
2021/05/25 07:47:30;;;;;;;6.82;5.60;;;;;;;38.96;17.98;94863.19;5118739;27;20063;-67
2021/05/25 07:50:12;;;;;;;7.00;5.18;;;;;;;38.08;18.66;94856.78;5116753;28;20040;-62
2021/05/25 07:52:41;;;;;;;6.40;5.60;;;;;;;39.60;17.37;94859.56;5117068;28;20078;-68
2021/05/25 07:55:09;;;;;;;15.20;10.65;;;;;;;39.20;17.48;94855.09;5116806;28;20369;-68
2021/05/25 07:57:37;;;;;;;12.88;9.05;;;;;;;39.20;17.59;94851.63;5116444;28;20052;-69
2021/05/25 08:00:07;;;;;;;9.40;7.18;;;;;;;39.37;17.30;94847.31;5098586;28;20047;-68
2021/05/25 08:02:40;;;;;;;8.88;6.20;;;;;;;39.27;17.48;94848.56;5116659;28;20052;-68
2021/05/25 08:05:08;;;;;;;7.10;5.60;;;;;;;39.02;17.46;94850.41;5097473;28;20434;-65
2021/05/25 08:07:35;;;;;;;10.88;5.53;;;;;;;39.49;17.20;94849.06;5116566;28;20055;-68
2021/05/25 08:10:05;;;;;;;10.02;4.88;;;;;;;39.05;17.87;94848.75;5116620;28;20615;-69
2021/05/25 08:12:33;;;;;;;7.25;4.97;;;;;;;39.68;17.22;94845.06;5098786;28;20047;-69
2021/05/25 08:15:05;;;;;;;8.98;5.22;;;;;;;39.95;17.06;94835.97;5116113;28;20098;-69
2021/05/25 08:20:17;;;;;;;6.45;4.60;;;;;;;39.34;17.23;94843.53;5135533;27;19911;-63
2021/05/25 08:22:48;;;;;;;8.15;4.63;;;;;;;39.16;17.68;94846.31;5116408;28;20047;-65
2021/05/25 08:25:17;;;;;;;6.78;4.00;;;;;;;39.77;17.19;94849.72;5116106;28;20062;-68
2021/05/25 08:27:46;;;;;;;7.32;4.20;;;;;;;39.34;17.71;94842.78;5116381;28;20472;-63
2021/05/25 08:30:16;;;;;;;8.05;4.50;;;;;;;40.37;16.70;94843.28;5115130;28;20378;-67
2021/05/25 08:32:44;;;;;;;8.25;4.22;;;;;;;39.53;17.64;94844.22;5116128;28;20047;-61
2021/05/25 08:35:12;;;;;;;8.45;4.03;;;;;;;39.91;17.64;94845.56;5115676;28;20048;-68
2021/05/25 08:37:39;;;;;;;8.50;6.95;;;;;;;40.13;17.18;94840.56;5115915;28;20048;-70
2021/05/25 08:40:09;;;;;;;11.90;9.68;;;;;;;40.46;16.80;94834.25;5115643;28;20496;-68
2021/05/25 08:42:37;;;;;;;11.43;6.20;;;;;;;40.21;17.09;94836.25;5115900;28;20044;-67
2021/05/25 08:45:11;;;;;;;6.72;5.60;;;;;;;39.84;17.80;94834.97;5115679;27;20353;-64
2021/05/25 08:47:39;;;;;;;8.18;5.53;;;;;;;39.44;17.87;94831.31;5135174;27;20133;-68
2021/05/25 08:50:12;;;;;;;8.73;5.75;;;;;;;39.81;17.25;94833.13;5116841;27;20365;-68
2021/05/25 08:52:39;;;;;;;9.50;5.00;;;;;;;40.05;17.17;94833.91;5115742;28;20050;-69
2021/05/25 08:55:08;;;;;;;6.60;5.88;;;;;;;39.50;17.83;94834.19;5115358;28;20044;-68
2021/05/25 08:57:35;;;;;;;8.55;5.85;;;;;;;39.73;17.29;94830.75;5115529;28;20047;-64
2021/05/25 09:00:06;;;;;;;8.15;5.72;;;;;;;39.83;17.24;94827.97;5115249;28;20051;-67
2021/05/25 09:02:34;;;;;;;8.50;6.00;;;;;;;39.58;17.72;94821.72;5115671;28;20044;-63
2021/05/25 09:05:18;;;;;;;8.85;6.07;;;;;;;39.95;17.24;94819.56;5115194;28;20085;-68
2021/05/25 09:07:50;;;;;;;9.38;6.15;;;;;;;40.16;17.01;94815.00;5115146;28;20047;-67
2021/05/25 09:10:51;;;;;;;42.53;21.13;;;;;;;39.85;17.04;94809.09;5115323;28;20051;-67
2021/05/25 09:13:20;;;;;;;14.70;9.82;;;;;;;39.71;17.53;94807.81;5115379;28;20503;-68
2021/05/25 09:15:52;;;;;;;47.30;22.48;;;;;;;38.85;18.07;94811.75;5120904;27;20059;-68
2021/05/25 09:18:25;;;;;;;24.38;12.45;;;;;;;39.79;17.24;94811.72;5135818;27;20045;-69
2021/05/25 09:20:56;;;;;;;18.67;10.23;;;;;;;39.41;17.76;94815.09;5128987;27;20043;-68
2021/05/25 09:23:35;;;;;;;14.15;8.27;;;;;;;40.24;16.89;94805.19;5115308;28;20434;-68
2021/05/25 09:26:08;;;;;;;8.38;6.57;;;;;;;39.41;17.82;94804.91;5114839;28;20051;-66
2021/05/25 09:28:37;;;;;;;11.75;6.80;;;;;;;39.58;17.29;94807.28;5114989;28;20044;-68
2021/05/25 09:31:05;;;;;;;7.65;6.28;;;;;;;39.68;17.24;94809.50;5097159;28;20040;-66
2021/05/25 09:33:33;;;;;;;11.05;6.55;;;;;;;40.80;16.62;94809.00;5115171;28;20077;-65
2021/05/25 09:36:10;;;;;;;9.68;6.03;;;;;;;39.98;17.21;94804.16;5114662;28;20361;-69
2021/05/25 09:38:38;;;;;;;9.23;6.47;;;;;;;39.44;17.66;94803.97;5115096;28;20055;-68
2021/05/25 09:41:07;;;;;;;8.43;7.10;;;;;;;39.66;17.86;94800.25;5114730;28;20047;-69
2021/05/25 09:43:34;;;;;;;9.75;6.75;;;;;;;39.50;17.48;94812.31;5115161;28;20074;-64
2021/05/25 09:46:14;;;;;;;17.52;11.02;;;;;;;39.57;17.48;94805.78;5113143;28;20051;-70
2021/05/25 09:48:44;;;;;;;13.65;9.80;;;;;;;40.18;17.19;94804.34;5135442;28;20441;-68
2021/05/25 09:51:28;;;;;;;12.02;7.63;;;;;;;40.18;17.01;94801.59;5127036;28;20043;-68
2021/05/25 09:53:56;;;;;;;10.77;7.13;;;;;;;39.77;17.38;94793.03;5110555;28;20048;-68
2021/05/25 09:56:24;;;;;;;8.95;7.28;;;;;;;39.72;17.59;94801.88;5096742;28;20054;-69
2021/05/25 09:58:51;;;;;;;10.75;7.20;;;;;;;39.90;17.34;94795.53;5116946;28;20043;-69
2021/05/25 10:01:18;;;;;;;8.25;7.20;;;;;;;40.01;17.30;94795.03;5118859;28;20059;-69
2021/05/25 10:03:53;;;;;;;10.23;7.47;;;;;;;40.36;17.25;94792.47;5119068;28;20079;-68
2021/05/25 10:06:20;;;;;;;10.10;6.45;;;;;;;40.14;17.24;94787.34;5117927;28;20047;-68
2021/05/25 10:08:49;;;;;;;11.45;6.68;;;;;;;39.88;17.69;94775.34;5102825;28;20054;-68
2021/05/25 10:11:17;;;;;;;10.57;6.47;;;;;;;39.35;18.09;94778.66;5114930;28;20361;-67
2021/05/25 10:13:45;;;;;;;8.88;6.18;;;;;;;39.69;17.83;94775.44;5118794;28;20039;-69
2021/05/25 10:16:15;;;;;;;7.80;6.50;;;;;;;40.65;17.00;94769.88;5123427;27;20043;-69
2021/05/25 10:21:14;;;;;;;9.30;6.57;;;;;;;40.87;16.71;94770.28;5105508;28;20054;-68
2021/05/25 10:23:43;;;;;;;7.15;6.30;;;;;;;40.33;17.29;94763.28;5118646;28;20071;-69
2021/05/25 10:26:14;;;;;;;10.85;7.20;;;;;;;40.85;17.28;94747.28;5113013;28;20043;-68
2021/05/25 10:28:46;;;;;;;8.95;6.35;;;;;;;39.52;17.97;94746.97;5118408;28;20373;-69
2021/05/25 10:31:30;;;;;;;9.30;7.05;;;;;;;39.96;17.18;94751.88;5118271;28;20055;-67
2021/05/25 10:34:14;;;;;;;9.82;6.90;;;;;;;40.04;17.27;94739.34;5117776;28;20449;-68
2021/05/25 10:36:46;;;;;;;8.25;6.60;;;;;;;39.64;17.50;94745.25;5111398;28;20060;-70
2021/05/25 10:39:44;;;;;;;8.40;6.80;;;;;;;40.31;17.06;94738.34;5103107;28;20048;-69
2021/05/25 10:42:21;;;;;;;7.75;6.75;;;;;;;40.21;17.26;94737.69;5077811;28;20390;-69
2021/05/25 10:44:51;;;;;;;7.63;6.22;;;;;;;40.70;17.12;94746.53;5097825;28;20052;-70
2021/05/25 10:47:26;;;;;;;9.60;6.55;;;;;;;40.21;17.54;94734.94;5129898;27;20043;-68
2021/05/25 10:49:55;;;;;;;7.30;6.18;;;;;;;40.10;17.86;94742.97;5138661;27;20054;-69
2021/05/25 10:52:23;;;;;;;8.45;6.13;;;;;;;40.07;17.81;94749.34;5138675;27;20053;-67
2021/05/25 10:54:54;;;;;;;8.77;6.30;;;;;;;40.21;17.73;94736.94;5138568;27;20062;-69
2021/05/25 10:57:35;;;;;;;7.55;6.40;;;;;;;40.47;17.09;94735.19;5118950;27;20040;-69
2021/05/25 11:00:04;;;;;;;;;;;;;;;40.60;17.06;94721.19;5116278;28;20043;-68
2021/05/25 11:02:51;;;;;;;9.90;6.90;;;;;;;40.49;16.96;94716.28;5079598;28;20338;-70
2021/05/25 11:05:28;;;;;;;8.98;6.65;;;;;;;40.09;17.90;94714.09;5098239;28;20062;-69
2021/05/25 11:07:56;;;;;;;8.68;6.47;;;;;;;39.40;18.15;94720.59;5111272;28;20050;-69
2021/05/25 11:10:26;;;;;;;9.57;7.00;;;;;;;40.77;17.45;94713.25;5082767;28;20043;-69
2021/05/25 11:13:22;;;;;;;9.02;5.88;;;;;;;40.21;17.29;94702.09;5117456;28;20046;-67
2021/05/25 11:16:10;;;;;;;8.52;6.70;;;;;;;39.87;17.93;94695.22;5116013;27;20051;-69
2021/05/25 11:18:45;;;;;;;7.82;6.78;;;;;;;39.28;18.17;94707.91;5138172;27;20058;-69
2021/05/25 11:21:38;;;;;;;7.25;6.47;;;;;;;40.31;17.29;94703.50;5138252;27;20047;-69
2021/05/25 11:24:31;;;;;;;6.65;5.78;;;;;;;39.92;17.78;94693.81;5117553;28;20462;-70
2021/05/25 11:27:10;;;;;;;7.85;5.88;;;;;;;40.08;17.51;94690.69;5117079;28;20376;-69
2021/05/25 11:29:52;;;;;;;7.60;5.90;;;;;;;40.10;17.42;94693.69;5117446;28;20045;-69
2021/05/25 11:32:22;;;;;;;7.55;5.65;;;;;;;40.03;17.47;94702.25;5117243;28;20043;-69
2021/05/25 11:35:05;;;;;;;10.45;6.03;;;;;;;40.91;16.78;94704.28;5117076;28;20048;-69
2021/05/25 11:37:35;;;;;;;7.20;5.80;;;;;;;40.13;17.66;94686.53;5099586;28;20051;-70
2021/05/25 11:40:13;;;;;;;8.88;6.15;;;;;;;40.56;17.42;94701.47;5104893;28;20108;-69
2021/05/25 11:42:43;;;;;;;9.60;5.97;;;;;;;40.82;17.46;94691.44;5116458;28;20051;-69
2021/05/25 11:45:11;;;;;;;10.93;6.10;;;;;;;41.11;17.30;94685.13;5100070;27;20042;-69
2021/05/25 11:47:40;;;;;;;7.75;5.63;;;;;;;40.36;17.56;94689.19;5119142;27;20047;-70
2021/05/25 11:50:10;;;;;;;7.93;5.10;;;;;;;40.51;17.35;94691.19;5137544;27;20049;-70
2021/05/25 11:52:43;;;;;;;9.02;5.43;;;;;;;40.13;17.68;94681.81;5117545;27;20047;-71
2021/05/25 11:55:13;;;;;;;7.88;5.28;;;;;;;40.59;17.60;94684.06;5116840;28;20055;-69